Terminal Aerodrome Forecast
Issued by NWS

Home | Current Version | Previous Version | Text Only | Print | Product List | Glossary On
Versions: 1 2 3 4 5 6 7 8 9 10 11 12 13 14 15 16 17
175
FTUS43 KJKL 302320
TAFSME
TAF
KSME 302320Z 3100/3124 19010G20KT P6SM VCTS BKN080CB
      TEMPO 3102/3106 2SM TSRA OVC025CB
     FM310600 21009KT 3SM SHRA OVC015
     FM310900 24009KT 6SM -SHRA BKN005
     FM311200 24009KT P6SM BKN035
     FM311600 25010G20KT P6SM VCSH OVC015=

USA.gov is the U.S. government's official web portal to all federal, state and local government web resources and services.